Time;durP1;ratioP1;P1;durP2;ratioP2;P2;SDS_P1;SDS_P2;PMS_P1;PMS_P2;Temp;Humidity;BMP_temperature;BMP_pressure;BME280_temperature;BME280_humidity;BME280_pressure;Samples;Min_cycle;Max_cycle;Signal;HPM_P1;HPM_P2
2022/04/22 00:01:17;;;;;;;15.55;12.55;;;;;;;8.89;81.43;100258.50;5007346;28;20033;-56
2022/04/22 00:03:43;;;;;;;13.95;11.90;;;;;;;8.86;82.06;100255.06;5004128;28;20482;-56
2022/04/22 00:06:09;;;;;;;13.63;11.52;;;;;;;8.63;82.56;100264.63;4985601;28;20038;-56
2022/04/22 00:08:35;;;;;;;16.83;12.18;;;;;;;8.71;82.67;100256.00;4993561;28;20028;-56
2022/04/22 00:13:45;;;;;;;13.68;10.73;;;;;;;8.86;81.86;100249.91;5005273;28;20026;-56
2022/04/22 00:16:11;;;;;;;18.13;13.90;;;;;;;8.64;82.06;100255.16;4975377;28;20049;-57
2022/04/22 00:18:37;;;;;;;18.77;12.20;;;;;;;8.71;82.49;100256.00;4989043;28;20034;-57
2022/04/22 00:21:03;;;;;;;16.08;12.45;;;;;;;8.81;82.21;100258.53;5004323;28;20030;-57
2022/04/22 00:23:29;;;;;;;15.85;11.60;;;;;;;8.80;81.73;100255.94;4997232;28;20026;-57
2022/04/22 00:25:55;;;;;;;15.18;12.63;;;;;;;8.70;82.52;100252.53;4986211;28;20038;-57
2022/04/22 00:28:21;;;;;;;15.75;12.20;;;;;;;8.74;81.67;100253.41;5000416;28;20184;-57
2022/04/22 00:30:47;;;;;;;11.30;10.10;;;;;;;8.79;81.56;100255.09;4996573;28;20038;-57
2022/04/22 00:33:16;;;;;;;10.98;9.30;;;;;;;8.75;81.93;100255.09;5008104;28;20326;-56
2022/04/22 00:35:42;;;;;;;13.98;10.23;;;;;;;8.71;81.82;100250.84;5010078;28;20025;-56
2022/04/22 00:38:08;;;;;;;13.50;9.23;;;;;;;8.77;81.14;100254.22;5002525;28;20026;-57
2022/04/22 00:40:33;;;;;;;13.30;9.80;;;;;;;8.56;82.26;100255.19;5009474;28;20030;-58
2022/04/22 00:43:22;;;;;;;10.48;9.07;;;;;;;8.35;82.42;100204.50;5007325;28;20502;-57
2022/04/22 00:45:49;;;;;;;9.98;8.32;;;;;;;8.79;82.29;100254.22;4998540;28;20038;-57
2022/04/22 00:48:16;;;;;;;9.57;8.23;;;;;;;8.58;81.82;100255.16;4997000;28;20026;-57
2022/04/22 00:50:42;;;;;;;10.23;8.27;;;;;;;8.67;81.67;100238.81;5010543;28;20145;-57
2022/04/22 00:53:09;;;;;;;9.63;7.85;;;;;;;8.67;82.21;100243.97;5006819;28;20502;-57
2022/04/22 00:55:36;;;;;;;9.10;8.23;;;;;;;8.35;82.14;100186.44;4999254;28;20030;-57
2022/04/22 00:58:03;;;;;;;9.10;8.02;;;;;;;8.56;82.12;100241.44;4997354;28;20046;-57
2022/04/22 01:00:29;;;;;;;10.20;8.65;;;;;;;8.59;81.98;100249.16;4999120;28;20034;-57
2022/04/22 01:02:55;;;;;;;11.00;8.48;;;;;;;8.72;82.34;100243.09;4994464;28;20454;-57
2022/04/22 01:10:52;;;;;;;9.93;8.25;;;;;;;8.65;82.00;100236.22;5001462;28;20030;-58
2022/04/22 01:13:18;;;;;;;8.63;7.72;;;;;;;8.62;81.83;100229.34;4993210;28;20041;-57
2022/04/22 01:15:43;;;;;;;10.48;8.10;;;;;;;8.54;81.51;100220.78;4996127;28;20041;-58
2022/04/22 01:18:10;;;;;;;8.68;7.57;;;;;;;8.63;81.88;100237.94;4997025;28;20037;-58
2022/04/22 01:20:36;;;;;;;9.90;8.57;;;;;;;8.66;81.22;100232.75;5007103;28;20022;-57
2022/04/22 01:23:01;;;;;;;9.98;7.70;;;;;;;8.57;81.61;100231.09;5002156;28;20395;-57
2022/04/22 01:25:27;;;;;;;9.23;8.10;;;;;;;8.73;81.93;100233.59;5003620;28;20043;-57
2022/04/22 01:27:55;;;;;;;12.23;8.60;;;;;;;8.58;82.07;100224.19;5008190;28;20023;-57
2022/04/22 01:30:22;;;;;;;9.80;8.25;;;;;;;8.75;82.27;100237.03;5012634;28;20034;-57
2022/04/22 01:32:50;;;;;;;9.75;8.70;;;;;;;8.41;82.07;100175.22;4993496;28;20054;-58
2022/04/22 01:35:19;;;;;;;10.15;8.85;;;;;;;8.79;82.04;100234.44;4991335;28;20030;-58
2022/04/22 01:37:45;;;;;;;11.73;9.10;;;;;;;8.59;81.33;100223.34;5007003;28;20029;-58
2022/04/22 01:40:12;;;;;;;11.35;9.43;;;;;;;8.65;82.10;100231.06;5007193;28;20031;-58
2022/04/22 01:42:37;;;;;;;12.25;8.77;;;;;;;8.50;81.93;100231.97;4993137;28;20478;-58
2022/04/22 01:45:05;;;;;;;11.30;9.23;;;;;;;8.52;82.94;100243.16;5001532;28;20038;-58
2022/04/22 01:47:30;;;;;;;11.18;8.90;;;;;;;8.57;81.76;100244.00;4997334;28;20061;-58
2022/04/22 01:49:56;;;;;;;9.80;8.65;;;;;;;8.59;81.90;100236.25;5001192;28;20053;-59
2022/04/22 01:52:23;;;;;;;13.05;9.30;;;;;;;8.52;82.99;100237.97;5007872;28;20072;-58
2022/04/22 01:54:54;;;;;;;11.88;9.93;;;;;;;8.41;83.46;100239.75;5000063;28;20027;-59
2022/04/22 01:57:20;;;;;;;12.63;9.70;;;;;;;8.31;82.97;100236.34;4976968;28;20026;-59
2022/04/22 01:59:48;;;;;;;14.70;10.82;;;;;;;8.43;82.71;100231.09;5003596;28;20033;-58
2022/04/22 02:02:15;;;;;;;13.20;10.25;;;;;;;8.49;82.94;100238.00;5002496;28;20094;-58
2022/04/22 02:04:41;;;;;;;13.95;10.68;;;;;;;8.24;83.82;100234.63;4996117;28;20031;-57
2022/04/22 02:07:06;;;;;;;14.48;11.57;;;;;;;8.05;84.67;100219.22;4991876;28;20525;-57
2022/04/22 02:09:32;;;;;;;14.18;11.45;;;;;;;8.24;84.24;100238.06;4995943;28;20030;-57
2022/04/22 02:11:58;;;;;;;15.52;12.20;;;;;;;8.28;83.70;100239.78;4996629;28;20037;-57
2022/04/22 02:14:25;;;;;;;15.88;11.68;;;;;;;8.22;84.25;100239.81;4993964;28;20194;-57
2022/04/22 02:16:51;;;;;;;15.30;12.77;;;;;;;8.17;84.67;100238.94;4991520;28;20503;-57
2022/04/22 02:19:17;;;;;;;16.60;12.93;;;;;;;8.16;84.22;100237.22;4995637;28;20092;-57
2022/04/22 02:21:43;;;;;;;19.08;12.73;;;;;;;8.19;83.80;100231.19;4995524;28;20030;-57
2022/04/22 02:24:10;;;;;;;17.95;14.13;;;;;;;8.16;84.04;100251.84;4995984;28;20030;-58
2022/04/22 02:29:20;;;;;;;18.65;14.10;;;;;;;8.14;84.78;100238.97;4995862;28;20045;-59
2022/04/22 02:31:46;;;;;;;21.25;16.05;;;;;;;8.01;84.85;100248.44;4996229;28;20499;-59
2022/04/22 02:34:12;;;;;;;19.92;15.65;;;;;;;8.00;85.38;100241.56;4978543;28;20026;-59
2022/04/22 02:36:39;;;;;;;20.77;16.25;;;;;;;8.20;84.96;100238.09;4996291;28;20130;-59
2022/04/22 02:39:05;;;;;;;20.30;15.25;;;;;;;8.24;84.11;100240.66;5000246;28;20037;-58
2022/04/22 02:46:59;;;;;;;20.83;17.02;;;;;;;8.33;84.07;100244.91;4992265;28;20040;-58
2022/04/22 02:49:25;;;;;;;24.40;18.00;;;;;;;8.18;85.71;100237.22;4994649;28;20030;-58
2022/04/22 02:51:51;;;;;;;23.08;18.17;;;;;;;8.21;85.71;100248.41;4992601;28;20369;-59
2022/04/22 02:54:17;;;;;;;28.98;19.58;;;;;;;8.15;85.76;100247.53;5002277;28;20383;-59
2022/04/22 02:56:42;;;;;;;30.15;20.88;;;;;;;8.09;87.31;100246.72;4994943;28;20030;-59
2022/04/22 02:59:09;;;;;;;25.58;19.60;;;;;;;8.21;85.87;100238.06;4994501;28;20038;-59
2022/04/22 03:01:34;;;;;;;28.90;21.02;;;;;;;8.16;85.55;100238.94;4994895;28;20034;-58
2022/04/22 03:04:00;;;;;;;33.72;20.92;;;;;;;8.26;86.35;100243.22;4980530;28;20375;-58
2022/04/22 03:06:26;;;;;;;33.95;22.58;;;;;;;8.34;85.76;100241.47;4975057;28;20049;-59
2022/04/22 03:08:54;;;;;;;28.80;21.85;;;;;;;8.43;84.76;100238.84;4975275;28;20043;-59
2022/04/22 03:11:21;;;;;;;30.35;21.27;;;;;;;8.37;85.71;100238.03;4975500;28;20077;-58
2022/04/22 03:13:49;;;;;;;23.90;18.13;;;;;;;8.21;84.65;100229.47;4975586;28;20137;-59
2022/04/22 03:16:19;;;;;;;24.15;17.00;;;;;;;8.19;85.16;100239.78;4963003;28;20027;-58
2022/04/22 03:18:45;;;;;;;19.15;15.13;;;;;;;7.97;85.65;100244.16;4974914;28;20501;-58
2022/04/22 03:21:10;;;;;;;17.38;13.20;;;;;;;7.91;85.80;100246.75;4973690;28;20061;-59
2022/04/22 03:23:36;;;;;;;20.45;14.27;;;;;;;7.84;85.64;100245.00;4974870;28;20034;-58
2022/04/22 03:26:01;;;;;;;20.23;12.82;;;;;;;7.99;85.77;100246.72;4974795;28;20031;-58
2022/04/22 03:28:27;;;;;;;19.13;12.80;;;;;;;7.93;85.16;100239.84;4975164;28;20039;-59
2022/04/22 03:30:53;;;;;;;18.73;11.88;;;;;;;8.09;86.00;100249.28;4975119;28;20106;-59
2022/04/22 03:33:19;;;;;;;20.17;12.60;;;;;;;8.15;84.87;100257.88;4975253;28;20027;-59
2022/04/22 03:35:50;;;;;;;21.92;12.50;;;;;;;8.13;85.02;100263.03;4975122;28;20030;-59
2022/04/22 03:38:15;;;;;;;22.48;10.52;;;;;;;8.07;85.51;100252.72;4981830;28;20058;-59
2022/04/22 03:40:41;;;;;;;17.77;11.48;;;;;;;8.07;84.70;100245.84;4974807;28;20062;-58
2022/04/22 03:43:07;;;;;;;19.98;11.48;;;;;;;8.20;85.59;100250.97;4973474;28;20042;-58
2022/04/22 03:45:32;;;;;;;17.15;9.40;;;;;;;8.34;84.08;100250.91;4974984;28;20123;-58
2022/04/22 03:47:59;;;;;;;17.83;10.05;;;;;;;8.24;84.77;100250.13;4974736;28;20042;-59
2022/04/22 03:50:28;;;;;;;15.68;9.93;;;;;;;8.38;84.41;100247.47;4973443;28;20038;-59
2022/04/22 03:52:54;;;;;;;18.08;9.60;;;;;;;8.48;83.47;100244.06;4973226;28;20031;-59
2022/04/22 03:55:20;;;;;;;12.82;8.27;;;;;;;8.63;83.20;100241.38;4973665;28;20029;-59
2022/04/22 04:00:29;;;;;;;16.52;8.95;;;;;;;8.11;84.59;100252.72;4971562;28;20034;-59
2022/04/22 04:02:55;;;;;;;13.20;8.52;;;;;;;8.34;83.02;100250.91;4992579;28;20054;-58
2022/04/22 04:05:20;;;;;;;16.30;8.88;;;;;;;8.46;83.68;100249.22;4980052;28;20126;-59
2022/04/22 04:07:46;;;;;;;15.20;8.88;;;;;;;8.34;82.79;100254.38;4988836;28;20088;-59
2022/04/22 04:16:00;;;;;;;14.77;8.50;;;;;;;8.03;83.77;100244.13;4979913;28;20038;-60
2022/04/22 04:18:37;;;;;;;16.10;8.48;;;;;;;8.20;82.99;100267.31;4973571;28;20472;-60
2022/04/22 04:23:50;;;;;;;17.35;8.50;;;;;;;8.44;82.95;100253.50;4957676;28;20030;-59
2022/04/22 04:26:18;;;;;;;16.08;7.97;;;;;;;8.46;81.84;100243.19;4978806;28;20034;-58
2022/04/22 04:28:47;;;;;;;14.95;8.18;;;;;;;8.52;82.56;100256.06;4974241;28;20494;-58
2022/04/22 04:31:13;;;;;;;14.13;8.50;;;;;;;8.58;82.05;100255.16;4972966;28;20468;-59
2022/04/22 04:33:39;;;;;;;14.75;8.50;;;;;;;8.60;81.84;100251.72;4971761;28;20066;-59
2022/04/22 04:36:05;;;;;;;12.25;8.80;;;;;;;8.31;82.66;100249.22;4973289;28;20481;-59
2022/04/22 04:38:32;;;;;;;11.93;8.10;;;;;;;8.37;81.58;100250.94;4970770;28;20059;-59
2022/04/22 04:40:58;;;;;;;16.05;8.60;;;;;;;8.56;81.41;100249.16;4972480;28;20027;-59
2022/04/22 04:43:24;;;;;;;16.33;8.45;;;;;;;8.70;81.10;100249.97;4973267;28;20105;-59
2022/04/22 04:45:50;;;;;;;13.43;7.75;;;;;;;8.49;80.40;100260.38;4973703;28;20622;-59
2022/04/22 04:48:19;;;;;;;11.23;7.50;;;;;;;8.54;80.76;100256.06;4956156;28;20034;-55
2022/04/22 04:50:51;;;;;;;15.27;7.93;;;;;;;8.56;81.33;100256.91;4972826;28;20105;-56
2022/04/22 04:53:20;;;;;;;13.95;7.43;;;;;;;8.56;80.76;100251.75;4972166;28;20042;-59
2022/04/22 04:55:46;;;;;;;11.77;7.88;;;;;;;8.56;80.43;100254.34;4966353;28;20106;-59
2022/04/22 04:58:12;;;;;;;14.15;7.10;;;;;;;8.59;80.63;100259.47;4973111;28;20034;-59
2022/04/22 05:00:38;;;;;;;10.05;7.00;;;;;;;8.49;80.84;100255.22;4973092;28;20037;-59
2022/04/22 05:03:04;;;;;;;9.43;6.82;;;;;;;8.38;81.81;100253.50;4972882;28;20142;-59
2022/04/22 05:05:30;;;;;;;9.10;6.70;;;;;;;8.41;81.63;100252.66;4973069;28;20400;-58
2022/04/22 05:08:00;;;;;;;10.45;6.60;;;;;;;8.43;81.10;100249.16;4955478;28;20050;-59
2022/04/22 05:10:29;;;;;;;9.93;6.30;;;;;;;8.22;80.53;100197.63;4973164;28;20046;-59
2022/04/22 05:12:55;;;;;;;8.43;5.60;;;;;;;8.68;79.57;100251.72;4972861;28;20106;-59
2022/04/22 05:15:22;;;;;;;13.18;6.20;;;;;;;8.85;79.80;100254.22;4962947;28;20488;-58
2022/04/22 05:17:48;;;;;;;13.25;5.93;;;;;;;8.93;78.89;100256.75;4968401;28;20419;-58
2022/04/22 05:20:16;;;;;;;11.07;5.38;;;;;;;8.73;78.55;100228.44;4971055;28;20050;-59
2022/04/22 05:22:43;;;;;;;11.45;5.90;;;;;;;8.79;79.15;100256.81;4971386;28;20058;-60
2022/04/22 05:25:10;;;;;;;13.43;6.40;;;;;;;8.90;79.25;100254.19;4970907;28;20499;-59
2022/04/22 05:27:37;;;;;;;6.90;5.82;;;;;;;9.13;78.54;100254.03;4971278;28;20035;-59
2022/04/22 05:32:49;;;;;;;10.55;5.38;;;;;;;9.15;78.59;100263.50;4972241;28;20046;-59
2022/04/22 05:35:17;;;;;;;8.25;5.82;;;;;;;8.76;78.44;100197.44;4972959;28;20023;-59
2022/04/22 05:37:51;;;;;;;9.77;5.47;;;;;;;9.27;78.40;100257.38;4963456;28;20089;-58
2022/04/22 05:40:27;;;;;;;11.00;6.65;;;;;;;9.18;77.66;100194.56;4988327;28;20468;-58
2022/04/22 05:42:53;;;;;;;8.25;5.13;;;;;;;9.45;76.55;100253.81;4983276;28;20030;-59
2022/04/22 05:45:20;;;;;;;10.52;5.32;;;;;;;9.53;77.28;100255.50;4972729;28;20023;-59
2022/04/22 05:47:46;;;;;;;8.60;5.57;;;;;;;9.22;77.30;100254.00;4970913;28;20031;-59
2022/04/22 05:50:14;;;;;;;12.80;5.95;;;;;;;9.36;77.07;100255.63;4964807;28;20424;-59
2022/04/22 05:52:41;;;;;;;9.98;6.03;;;;;;;9.54;75.62;100239.13;4972514;28;20031;-59
2022/04/22 05:55:09;;;;;;;9.80;6.40;;;;;;;9.57;76.47;100257.19;4971598;28;20125;-59
2022/04/22 05:57:37;;;;;;;11.93;6.55;;;;;;;9.78;76.09;100238.03;4972637;28;20476;-59
2022/04/22 06:00:13;;;;;;;8.25;6.15;;;;;;;9.74;75.92;100201.00;4972657;28;20059;-58
2022/04/22 06:02:43;;;;;;;8.80;6.07;;;;;;;9.89;75.56;100250.84;4972748;28;20453;-59
2022/04/22 06:05:10;;;;;;;8.75;5.38;;;;;;;9.82;74.40;100238.00;4972815;28;20035;-59
2022/04/22 06:07:39;;;;;;;13.40;6.00;;;;;;;9.97;75.42;100249.91;4973688;28;20085;-59
2022/04/22 06:12:51;;;;;;;11.70;5.60;;;;;;;9.90;74.97;100247.41;4972483;28;20035;-58
2022/04/22 06:15:16;;;;;;;7.30;5.47;;;;;;;10.08;75.50;100252.41;4971209;28;20042;-58
2022/04/22 06:17:42;;;;;;;18.42;6.32;;;;;;;10.16;74.47;100250.59;4972071;28;20025;-59
2022/04/22 06:20:09;;;;;;;8.68;5.60;;;;;;;10.04;74.76;100250.72;4972767;28;20432;-59
2022/04/22 06:22:34;;;;;;;13.15;5.63;;;;;;;9.90;75.02;100250.00;4972591;28;20472;-58
2022/04/22 06:25:00;;;;;;;9.13;5.63;;;;;;;10.11;75.25;100246.34;4953286;28;20027;-58
2022/04/22 06:27:37;;;;;;;10.05;6.10;;;;;;;9.73;74.64;100186.34;4971145;28;20480;-59
2022/04/22 06:30:06;;;;;;;7.00;5.70;;;;;;;9.63;74.88;100193.34;4972310;28;20027;-59
2022/04/22 06:32:32;;;;;;;8.95;5.93;;;;;;;9.90;75.02;100244.81;4972346;28;20031;-59
2022/04/22 06:34:58;;;;;;;7.82;6.07;;;;;;;9.92;74.87;100243.06;4975648;28;20027;-59
2022/04/22 06:37:24;;;;;;;10.43;5.82;;;;;;;9.81;75.85;100243.19;4975872;28;20039;-58
2022/04/22 06:48:04;;;;;;;11.13;5.65;;;;;;;9.71;75.44;100232.06;4974153;28;20042;-59
2022/04/22 06:50:30;;;;;;;4.95;4.45;;;;;;;9.98;73.98;100237.84;4969998;28;20030;-59
2022/04/22 06:52:55;;;;;;;7.03;5.35;;;;;;;9.94;74.35;100237.00;4958387;28;20030;-59
2022/04/22 06:55:21;;;;;;;7.75;5.65;;;;;;;9.96;75.25;100239.56;4974737;28;20034;-58
2022/04/22 06:57:51;;;;;;;12.15;5.28;;;;;;;10.11;73.99;100233.41;4974797;28;20026;-58
2022/04/22 07:00:20;;;;;;;7.63;4.82;;;;;;;10.04;74.87;100237.78;4976054;28;20480;-58
2022/04/22 07:02:46;;;;;;;11.15;5.35;;;;;;;9.94;74.73;100239.59;4975010;28;20530;-59
2022/04/22 07:05:12;;;;;;;7.80;5.47;;;;;;;10.12;74.50;100237.72;4975036;28;20130;-59
2022/04/22 07:07:39;;;;;;;7.22;5.38;;;;;;;10.11;74.68;100244.59;4974340;28;20113;-58
2022/04/22 07:10:05;;;;;;;5.60;5.00;;;;;;;9.86;74.31;100238.81;4975071;28;20031;-58
2022/04/22 07:12:32;;;;;;;8.98;5.07;;;;;;;9.86;73.84;100192.25;4975201;28;20382;-58
2022/04/22 07:15:05;;;;;;;10.60;4.70;;;;;;;10.28;73.55;100233.22;4974875;28;20388;-59
2022/04/22 07:17:32;;;;;;;6.95;4.63;;;;;;;10.40;73.13;100230.50;4983257;28;20460;-59
2022/04/22 07:20:05;;;;;;;6.22;4.63;;;;;;;10.18;73.52;100228.13;4975285;28;20019;-59
2022/04/22 07:22:32;;;;;;;13.63;5.20;;;;;;;10.40;73.25;100216.72;4980690;28;20036;-59
2022/04/22 07:24:58;;;;;;;6.65;5.18;;;;;;;10.35;73.56;100230.56;4985119;28;20484;-59
2022/04/22 07:27:27;;;;;;;10.73;4.50;;;;;;;10.38;72.05;100234.84;4974371;28;20118;-59
2022/04/22 07:29:53;;;;;;;6.53;5.22;;;;;;;10.27;72.97;100228.91;4974901;28;20037;-59
2022/04/22 07:32:19;;;;;;;7.72;4.82;;;;;;;10.15;73.26;100224.72;4974975;28;20026;-59
2022/04/22 07:34:45;;;;;;;6.18;5.20;;;;;;;10.29;72.92;100229.72;4974877;28;20468;-59
2022/04/22 07:37:11;;;;;;;8.55;4.95;;;;;;;10.28;73.42;100225.47;4972055;28;20035;-60
2022/04/22 07:39:40;;;;;;;8.65;5.38;;;;;;;10.40;73.16;100221.88;4962900;28;20031;-59
2022/04/22 07:42:07;;;;;;;8.27;5.00;;;;;;;10.45;72.46;100228.72;4974735;28;20035;-59
2022/04/22 07:47:19;;;;;;;10.60;5.00;;;;;;;10.56;72.02;100222.56;4986171;28;20031;-60
2022/04/22 07:49:45;;;;;;;10.85;5.30;;;;;;;10.62;72.57;100222.50;4994370;28;20503;-59
2022/04/22 07:52:10;;;;;;;8.63;4.55;;;;;;;10.52;72.38;100227.78;4981649;28;20155;-59
2022/04/22 07:54:36;;;;;;;7.85;5.40;;;;;;;10.38;73.10;100223.66;4974307;28;20798;-59
2022/04/22 07:57:02;;;;;;;11.57;6.32;;;;;;;10.63;72.26;100206.06;4973139;28;20063;-59
2022/04/22 07:59:28;;;;;;;8.00;5.80;;;;;;;10.72;71.48;100218.91;4974204;28;20106;-58
2022/04/22 08:01:54;;;;;;;7.95;5.15;;;;;;;10.97;71.58;100218.53;4974172;28;20384;-59
2022/04/22 08:04:19;;;;;;;12.75;5.15;;;;;;;10.86;70.90;100214.38;4974375;28;20058;-58
2022/04/22 08:06:45;;;;;;;8.52;5.07;;;;;;;10.88;70.76;100219.53;4974352;28;20042;-59
2022/04/22 08:09:12;;;;;;;8.90;5.00;;;;;;;10.87;71.15;100215.22;4973941;28;20098;-59
2022/04/22 08:11:37;;;;;;;8.45;4.90;;;;;;;10.94;70.55;100213.41;4973789;28;20118;-59
2022/04/22 08:14:03;;;;;;;9.02;6.00;;;;;;;10.88;71.45;100212.59;4974321;28;20035;-59
2022/04/22 08:16:28;;;;;;;7.50;5.57;;;;;;;10.54;71.75;100207.03;4959829;28;20023;-58
2022/04/22 08:18:54;;;;;;;8.85;5.05;;;;;;;10.96;70.92;100203.88;4973870;28;20059;-60
2022/04/22 08:21:19;;;;;;;10.30;6.10;;;;;;;10.60;71.10;100206.09;4974068;28;20066;-59
2022/04/22 08:23:46;;;;;;;12.10;5.65;;;;;;;10.91;71.25;100197.91;4974149;28;20023;-59
2022/04/22 08:26:13;;;;;;;8.40;5.43;;;;;;;10.87;71.19;100199.69;4973921;28;20034;-60
2022/04/22 08:28:39;;;;;;;7.10;5.32;;;;;;;11.05;71.16;100190.78;4972104;28;20114;-59
2022/04/22 08:31:04;;;;;;;6.97;5.97;;;;;;;11.23;70.42;100187.91;4957238;28;20034;-59
2022/04/22 08:33:30;;;;;;;7.70;5.82;;;;;;;11.00;70.48;100190.84;4980090;28;20034;-58
2022/04/22 08:35:56;;;;;;;5.95;5.38;;;;;;;11.19;69.65;100194.00;4973795;28;20101;-59
2022/04/22 08:38:23;;;;;;;8.25;5.05;;;;;;;11.43;69.08;100188.44;4985284;28;20054;-58
2022/04/22 08:40:48;;;;;;;5.85;5.13;;;;;;;11.16;68.96;100183.69;4986005;28;20023;-58
2022/04/22 08:43:15;;;;;;;8.95;5.40;;;;;;;11.28;69.30;100195.59;4973528;28;20403;-58
2022/04/22 08:45:40;;;;;;;10.98;4.97;;;;;;;11.34;69.32;100184.28;4974346;28;20438;-58
2022/04/22 08:50:54;;;;;;;9.05;5.30;;;;;;;11.20;68.47;100133.50;4973797;28;20418;-58
2022/04/22 08:53:23;;;;;;;6.45;4.38;;;;;;;11.65;68.09;100207.94;4973974;28;20037;-58
2022/04/22 08:55:55;;;;;;;7.05;4.93;;;;;;;11.80;67.42;100180.88;4973056;28;20518;-58
2022/04/22 08:58:23;;;;;;;8.52;4.60;;;;;;;11.70;66.89;100135.22;4973588;28;20034;-59
2022/04/22 09:00:51;;;;;;;5.07;4.45;;;;;;;11.88;66.85;100173.78;4973993;28;20030;-57
2022/04/22 09:03:17;;;;;;;13.32;4.60;;;;;;;12.07;66.00;100183.84;4973489;28;20133;-58
2022/04/22 09:05:44;;;;;;;7.85;5.32;;;;;;;11.64;66.23;100179.44;4973722;28;20141;-59
2022/04/22 09:08:10;;;;;;;8.80;4.53;;;;;;;11.68;66.54;100181.09;4969629;28;20041;-58
2022/04/22 09:10:38;;;;;;;7.63;4.20;;;;;;;11.88;66.14;100168.59;4982684;28;20392;-58
2022/04/22 09:13:09;;;;;;;9.63;4.53;;;;;;;11.78;66.02;100181.78;4955708;28;20023;-59
2022/04/22 09:15:36;;;;;;;9.30;4.35;;;;;;;11.78;65.59;100169.66;4973316;28;20050;-58
2022/04/22 09:18:15;;;;;;;6.75;4.15;;;;;;;12.05;65.62;100177.84;4973330;28;20046;-58
2022/04/22 09:20:40;;;;;;;4.72;3.75;;;;;;;12.20;66.06;100172.34;4973558;28;20061;-57
2022/04/22 09:23:32;;;;;;;12.02;7.10;;;;;;;12.17;65.33;100155.97;4973479;28;20026;-58
2022/04/22 09:25:58;;;;;;;8.50;4.65;;;;;;;11.92;64.88;100165.06;4972131;28;20492;-58
2022/04/22 09:28:24;;;;;;;4.90;3.55;;;;;;;12.16;63.95;100168.09;4971649;28;20038;-59
2022/04/22 09:31:01;;;;;;;12.80;4.20;;;;;;;12.04;64.71;100168.34;4972386;28;20030;-58
2022/04/22 09:33:45;;;;;;;6.85;4.05;;;;;;;12.33;64.15;100170.38;4969713;28;20441;-58
2022/04/22 09:45:04;;;;;;;10.05;4.63;;;;;;;11.98;65.33;100112.22;4967612;28;20377;-59
2022/04/22 09:47:32;;;;;;;7.95;4.45;;;;;;;11.86;64.45;100102.91;4973093;28;20134;-59
2022/04/22 09:49:59;;;;;;;7.65;4.53;;;;;;;12.18;64.47;100160.28;4955719;28;20035;-59
2022/04/22 09:52:31;;;;;;;7.82;4.55;;;;;;;12.05;64.70;100164.88;4973508;28;20026;-59
2022/04/22 09:54:59;;;;;;;33.88;21.10;;;;;;;12.29;64.43;100149.69;4972463;28;20034;-59
2022/04/22 09:57:26;;;;;;;7.25;4.85;;;;;;;12.33;63.55;100159.13;4955160;28;20031;-58
2022/04/22 09:59:52;;;;;;;7.20;4.95;;;;;;;12.34;63.21;100150.44;4973138;28;20023;-58
2022/04/22 10:02:25;;;;;;;5.07;4.10;;;;;;;12.34;63.93;100158.22;4982256;28;20034;-59
2022/04/22 10:04:54;;;;;;;9.65;4.13;;;;;;;12.48;62.92;100145.78;4970936;28;20039;-59
2022/04/22 10:07:22;;;;;;;7.45;4.53;;;;;;;12.47;63.02;100097.34;4972065;28;20030;-60
2022/04/22 10:09:49;;;;;;;8.60;4.57;;;;;;;13.03;61.83;100135.88;4975352;28;20041;-59
2022/04/22 10:12:19;;;;;;;5.57;3.80;;;;;;;12.94;61.67;100086.72;4976907;28;20031;-58
2022/04/22 10:14:46;;;;;;;8.80;4.75;;;;;;;13.46;61.73;100120.97;4974118;28;20030;-58
2022/04/22 10:17:12;;;;;;;6.65;4.55;;;;;;;12.88;61.19;100142.31;4976384;28;20054;-58
2022/04/22 10:19:38;;;;;;;6.07;4.72;;;;;;;12.99;61.51;100133.41;4976936;28;20085;-59
2022/04/22 10:22:07;;;;;;;5.65;4.25;;;;;;;13.22;61.52;100130.22;4977176;28;20105;-58
2022/04/22 10:24:32;;;;;;;6.50;4.30;;;;;;;13.30;61.01;100136.09;4983833;28;20057;-58
2022/04/22 10:27:00;;;;;;;5.00;4.25;;;;;;;13.36;60.86;100133.34;4976435;28;20026;-59
2022/04/22 10:29:29;;;;;;;5.35;4.15;;;;;;;13.21;59.56;100124.19;4977034;28;20088;-59
2022/04/22 10:31:56;;;;;;;15.50;9.52;;;;;;;13.49;60.58;100131.28;4976606;28;20070;-58
2022/04/22 10:34:37;;;;;;;7.40;4.40;;;;;;;13.52;59.65;100125.16;4976462;28;20034;-58
2022/04/22 10:37:04;;;;;;;7.75;4.43;;;;;;;13.49;60.02;100120.03;4977009;28;20518;-58
2022/04/22 10:39:34;;;;;;;7.20;4.30;;;;;;;13.48;60.33;100126.97;4996103;28;20472;-58
2022/04/22 10:42:00;;;;;;;8.35;4.03;;;;;;;13.62;60.37;100119.69;4978423;28;20348;-58
2022/04/22 10:47:15;;;;;;;10.77;4.75;;;;;;;13.68;59.83;100117.78;4973438;28;20562;-59
2022/04/22 10:49:43;;;;;;;6.07;4.38;;;;;;;13.02;60.10;100117.72;4978175;28;20032;-59
2022/04/22 10:52:13;;;;;;;9.55;4.60;;;;;;;13.06;61.40;100119.34;4975743;28;20099;-59
2022/04/22 10:54:58;;;;;;;7.20;4.93;;;;;;;12.94;60.48;100110.97;4975922;28;20030;-59
2022/04/22 10:57:34;;;;;;;5.28;4.22;;;;;;;12.40;61.04;100075.00;4976018;28;20035;-59
2022/04/22 11:00:11;;;;;;;6.00;4.22;;;;;;;12.91;60.53;100111.03;4976232;28;20118;-58
2022/04/22 11:02:42;;;;;;;7.68;4.60;;;;;;;12.88;60.96;100113.72;4975955;28;20388;-58
2022/04/22 11:05:20;;;;;;;4.68;4.18;;;;;;;12.97;60.21;100109.16;4975881;28;20117;-58
2022/04/22 11:07:57;;;;;;;5.18;4.07;;;;;;;12.96;60.28;100103.13;4975639;28;20515;-58
2022/04/22 11:10:24;;;;;;;6.35;3.92;;;;;;;12.88;60.83;100095.53;4975840;28;20039;-59
2022/04/22 11:12:57;;;;;;;7.72;5.85;;;;;;;13.08;60.28;100101.94;4975628;28;20476;-58
2022/04/22 11:15:50;;;;;;;10.10;4.40;;;;;;;13.27;59.66;100103.19;4970848;28;20091;-58
2022/04/22 11:18:17;;;;;;;6.35;4.20;;;;;;;13.23;59.65;100106.78;4975119;28;20070;-59
2022/04/22 11:20:59;;;;;;;6.75;4.20;;;;;;;13.19;59.82;100093.88;4930129;28;20034;-59
2022/04/22 11:23:33;;;;;;;;;;;;;;;13.21;59.47;100098.16;4974472;28;20043;-59
2022/04/22 11:26:00;;;;;;;8.13;4.88;;;;;;;13.03;59.12;100088.22;4974682;28;19909;-58
2022/04/22 11:28:28;;;;;;;7.38;4.60;;;;;;;13.19;60.05;100073.94;4974697;28;20033;-59
2022/04/22 11:30:53;;;;;;;6.50;4.55;;;;;;;13.34;59.36;100085.69;4974776;28;20034;-59
2022/04/22 11:33:24;;;;;;;7.20;4.40;;;;;;;13.25;60.18;100078.13;4964446;28;20105;-58
2022/04/22 11:35:57;;;;;;;8.30;4.70;;;;;;;13.27;58.06;100089.34;4974817;28;20077;-57
2022/04/22 11:38:23;;;;;;;7.20;4.60;;;;;;;13.04;59.03;100075.19;4975270;28;20038;-58
2022/04/22 11:40:52;;;;;;;7.15;4.70;;;;;;;13.04;59.45;100089.91;4981051;28;20018;-59
2022/04/22 11:43:18;;;;;;;21.63;12.25;;;;;;;13.12;59.51;100088.84;4991239;28;20052;-58
2022/04/22 11:45:46;;;;;;;6.20;5.30;;;;;;;12.99;59.83;100086.59;4956137;29;20027;-59
2022/04/22 11:48:13;;;;;;;7.68;5.47;;;;;;;13.01;59.03;100082.19;4972887;28;20039;-59
2022/04/22 11:50:41;;;;;;;7.22;5.05;;;;;;;12.91;58.68;100081.56;4974962;28;20046;-58
2022/04/22 11:53:18;;;;;;;7.65;4.57;;;;;;;12.54;59.41;100028.75;4975168;28;20093;-59
2022/04/22 11:55:46;;;;;;;16.42;5.00;;;;;;;13.08;59.73;100081.16;4974248;28;20042;-59
2022/04/22 11:58:16;;;;;;;7.80;4.57;;;;;;;12.97;58.83;100077.97;4958468;28;20041;-58
2022/04/22 12:06:18;;;;;;;7.20;5.55;;;;;;;12.97;58.44;100064.97;4959060;28;20054;-59
2022/04/22 12:08:50;;;;;;;7.15;5.00;;;;;;;12.80;59.69;100071.44;4974404;28;20026;-59
2022/04/22 12:11:16;;;;;;;6.35;4.75;;;;;;;12.92;59.28;100065.94;4974585;28;20042;-59
2022/04/22 12:13:41;;;;;;;8.55;5.03;;;;;;;12.97;59.76;100050.25;4974309;28;20027;-58
2022/04/22 12:16:07;;;;;;;5.07;4.57;;;;;;;13.11;59.35;100061.13;4958215;28;20023;-59
2022/04/22 12:18:36;;;;;;;7.32;4.20;;;;;;;13.20;59.03;100054.00;4974270;28;20030;-59
2022/04/22 12:21:04;;;;;;;8.98;4.32;;;;;;;13.23;58.63;100054.75;4974244;28;20030;-58
2022/04/22 12:23:44;;;;;;;7.22;4.80;;;;;;;12.89;59.36;100001.03;4974311;28;20035;-59
2022/04/22 12:26:24;;;;;;;5.03;4.20;;;;;;;13.00;60.28;99995.56;4974144;28;20397;-59
2022/04/22 12:29:02;;;;;;;6.15;4.70;;;;;;;13.33;59.52;100054.53;4974465;28;20027;-60
2022/04/22 12:31:32;;;;;;;9.48;4.80;;;;;;;13.34;59.53;100041.47;4973514;28;20042;-60